createdAt,value
2017-09-24T00:00:57.856Z,17.10
2017-09-24T00:03:25.787Z,14.33
2017-09-24T00:05:53.308Z,16.10
2017-09-24T00:08:21.610Z,15.73
2017-09-24T00:10:49.174Z,16.47
2017-09-24T00:13:16.725Z,17.67
2017-09-24T00:15:44.629Z,18.50
2017-09-24T00:18:12.167Z,16.73
2017-09-24T00:20:39.682Z,19.20
2017-09-24T00:23:07.240Z,17.70
2017-09-24T00:25:34.760Z,16.87
2017-09-24T00:28:02.639Z,19.10
2017-09-24T00:30:30.159Z,21.90
2017-09-24T00:32:57.720Z,17.57
2017-09-24T00:35:25.278Z,16.70
2017-09-24T00:37:53.568Z,18.43
2017-09-24T00:40:21.486Z,16.63
2017-09-24T00:42:49.027Z,15.23
2017-09-24T00:45:16.577Z,16.73
2017-09-24T00:47:44.118Z,15.50
2017-09-24T00:50:11.636Z,16.37
2017-09-24T00:52:39.550Z,20.70
2017-09-24T00:55:27.168Z,17.33
2017-09-24T00:57:55.033Z,15.93
2017-09-24T01:00:22.609Z,17.80
2017-09-24T01:02:50.138Z,15.90
2017-09-24T01:05:18.461Z,14.70
2017-09-24T01:07:45.978Z,16.90
2017-09-24T01:10:14.564Z,14.73
2017-09-24T01:12:42.848Z,15.53
2017-09-24T01:15:10.382Z,13.17
2017-09-24T01:17:37.931Z,13.63
2017-09-24T01:20:05.463Z,15.67
2017-09-24T01:22:33.351Z,14.27
2017-09-24T01:25:01.688Z,14.40
2017-09-24T01:27:29.257Z,16.07
2017-09-24T01:29:56.811Z,15.50
2017-09-24T01:32:24.415Z,14.87
2017-09-24T01:34:52.266Z,16.13
2017-09-24T01:37:19.803Z,14.20
2017-09-24T01:39:47.363Z,13.27
2017-09-24T01:42:14.934Z,16.40
2017-09-24T01:44:42.454Z,16.30
2017-09-24T01:47:11.094Z,13.30
2017-09-24T01:49:38.619Z,14.67
2017-09-24T01:52:06.926Z,16.70
2017-09-24T01:54:34.489Z,19.77
2017-09-24T01:57:02.039Z,16.37
2017-09-24T01:59:29.862Z,17.77
2017-09-24T02:01:57.392Z,16.97
2017-09-24T02:04:24.911Z,16.80
2017-09-24T02:06:52.457Z,18.13
2017-09-24T02:09:20.751Z,21.37
2017-09-24T02:11:48.645Z,17.53
2017-09-24T02:14:16.171Z,18.67
2017-09-24T02:16:44.452Z,21.53
2017-09-24T02:19:12.759Z,20.20
2017-09-24T02:21:40.306Z,18.30
2017-09-24T02:24:08.187Z,18.93
2017-09-24T02:26:35.711Z,19.97
2017-09-24T02:29:04.036Z,20.90
2017-09-24T02:31:31.593Z,21.33
2017-09-24T02:33:59.143Z,21.47
2017-09-24T02:36:27.111Z,19.50
2017-09-24T02:38:54.636Z,18.57
2017-09-24T02:41:22.947Z,18.33
2017-09-24T02:43:50.496Z,20.00
2017-09-24T02:46:18.029Z,19.93
2017-09-24T02:48:46.620Z,18.30
2017-09-24T02:51:14.952Z,20.27
2017-09-24T02:53:42.479Z,19.73
2017-09-24T02:56:10.026Z,21.73
2017-09-24T02:58:38.314Z,21.40
2017-09-24T03:01:06.145Z,21.20
2017-09-24T03:03:33.671Z,20.00
2017-09-24T03:06:01.195Z,20.17
2017-09-24T03:08:28.755Z,18.10
2017-09-24T03:10:56.285Z,15.03
2017-09-24T03:13:24.889Z,15.57
2017-09-24T03:15:53.176Z,15.20
2017-09-24T03:18:20.712Z,14.13
2017-09-24T03:20:48.262Z,16.00
2017-09-24T03:23:15.793Z,14.53
2017-09-24T03:25:43.756Z,13.67
2017-09-24T03:28:11.295Z,14.80
2017-09-24T03:30:38.823Z,12.77
2017-09-24T03:33:07.153Z,14.90
2017-09-24T03:35:34.695Z,11.10
2017-09-24T03:38:02.579Z,12.47
2017-09-24T03:40:30.446Z,13.20
2017-09-24T03:42:57.972Z,12.00
2017-09-24T03:45:26.378Z,12.87
2017-09-24T03:47:53.908Z,12.37
2017-09-24T03:50:22.488Z,11.53
2017-09-24T03:52:50.800Z,15.20
2017-09-24T03:55:18.360Z,13.77
2017-09-24T03:57:45.916Z,12.83
2017-09-24T04:00:14.203Z,16.33
2017-09-24T04:02:42.071Z,14.53
2017-09-24T04:05:09.598Z,13.80
2017-09-24T04:07:37.894Z,15.80
2017-09-24T04:10:05.462Z,13.87
2017-09-24T04:12:32.990Z,16.93
2017-09-24T04:15:01.623Z,14.40
2017-09-24T04:17:29.151Z,14.33
2017-09-24T04:19:56.686Z,16.30
2017-09-24T04:22:25.018Z,16.57
2017-09-24T04:24:52.558Z,17.00
2017-09-24T04:27:20.451Z,14.40
2017-09-24T04:29:47.970Z,18.03
2017-09-24T04:32:16.256Z,16.73
2017-09-24T04:34:43.820Z,16.63
2017-09-24T04:37:11.363Z,12.57
2017-09-24T04:39:40.492Z,16.90
2017-09-24T04:42:08.010Z,14.40
2017-09-24T04:44:35.527Z,16.90
2017-09-24T04:47:03.088Z,15.17
2017-09-24T04:49:30.615Z,17.30
2017-09-24T04:51:58.569Z,16.90
2017-09-24T04:54:26.127Z,14.10
2017-09-24T04:56:54.420Z,15.07
2017-09-24T04:59:21.982Z,14.20
2017-09-24T05:01:49.524Z,15.77
2017-09-24T05:04:18.141Z,13.83
2017-09-24T05:06:45.689Z,14.20
2017-09-24T05:09:13.840Z,17.13
2017-09-24T05:11:41.420Z,15.87
2017-09-24T05:14:08.957Z,17.70
2017-09-24T05:16:37.582Z,15.03
2017-09-24T05:19:06.247Z,15.90
2017-09-24T05:21:33.783Z,15.80
2017-09-24T05:24:01.341Z,17.63
2017-09-24T05:26:28.852Z,17.00
2017-09-24T05:28:56.936Z,19.33
2017-09-24T05:31:24.577Z,16.40
2017-09-24T05:33:52.107Z,15.43
2017-09-24T05:36:19.675Z,17.27
2017-09-24T05:38:48.066Z,18.50
2017-09-24T05:41:16.050Z,16.03
2017-09-24T05:43:43.634Z,19.83
2017-09-24T05:46:11.206Z,17.00
2017-09-24T05:48:38.777Z,18.07
2017-09-24T05:51:06.568Z,17.03
2017-09-24T05:53:34.378Z,19.30
2017-09-24T05:56:01.904Z,21.37
2017-09-24T05:58:30.309Z,21.30
2017-09-24T06:00:57.977Z,18.93
2017-09-24T06:03:26.669Z,18.20
2017-09-24T06:06:13.363Z,18.17
2017-09-24T06:11:27.023Z,17.60
2017-09-24T06:13:54.649Z,17.50
2017-09-24T06:16:22.187Z,20.63
2017-09-24T06:19:06.475Z,18.97
2017-09-24T06:21:37.480Z,18.90
2017-09-24T06:27:19.533Z,18.63
2017-09-24T06:33:07.374Z,18.70
2017-09-24T06:38:35.093Z,21.70
2017-09-24T06:46:53.653Z,20.30
2017-09-24T06:49:23.097Z,19.20
2017-09-24T06:51:53.351Z,16.00
2017-09-24T06:54:21.725Z,22.50
2017-09-24T06:56:49.316Z,22.37
2017-09-24T06:59:22.246Z,20.47
2017-09-24T07:01:55.270Z,22.47
2017-09-24T07:04:25.842Z,20.73
2017-09-24T07:06:56.710Z,18.17
2017-09-24T07:09:26.401Z,20.53
2017-09-24T07:11:54.321Z,20.80
2017-09-24T07:14:24.041Z,19.20
2017-09-24T07:16:51.886Z,20.03
2017-09-24T07:19:19.758Z,16.73
2017-09-24T07:21:51.586Z,19.73
2017-09-24T07:24:19.544Z,18.70
2017-09-24T07:26:47.839Z,18.73
2017-09-24T07:29:26.511Z,18.60
2017-09-24T07:31:54.059Z,19.87
2017-09-24T07:34:21.711Z,20.00
2017-09-24T07:36:50.023Z,18.60
2017-09-24T07:39:19.313Z,21.00
2017-09-24T07:41:47.263Z,20.63
2017-09-24T07:44:14.837Z,20.20
2017-09-24T07:46:43.213Z,21.13
2017-09-24T07:49:11.034Z,18.63
2017-09-24T07:51:38.630Z,20.53
2017-09-24T07:54:06.547Z,20.00
2017-09-24T07:56:34.921Z,17.80
2017-09-24T07:59:02.601Z,19.50
2017-09-24T08:04:09.835Z,20.47
2017-09-24T08:06:37.699Z,19.90
2017-09-24T08:09:16.938Z,19.30
2017-09-24T08:11:45.021Z,19.40
2017-09-24T08:14:12.539Z,17.80
2017-09-24T08:16:40.839Z,18.43
2017-09-24T08:19:08.391Z,18.50
2017-09-24T08:21:35.943Z,20.33
2017-09-24T08:24:03.791Z,18.90
2017-09-24T08:26:32.095Z,20.23
2017-09-24T08:28:59.652Z,23.07
2017-09-24T08:31:27.264Z,20.70
2017-09-24T08:33:54.778Z,24.43
2017-09-24T08:36:26.166Z,18.60
2017-09-24T08:38:53.706Z,20.90
2017-09-24T08:41:21.300Z,19.77
2017-09-24T08:43:48.866Z,20.90
2017-09-24T08:46:16.397Z,19.73
2017-09-24T08:48:44.269Z,17.70
2017-09-24T08:51:11.828Z,20.57
2017-09-24T08:53:40.285Z,19.97
2017-09-24T08:56:07.867Z,21.30
2017-09-24T08:58:35.403Z,19.27
2017-09-24T09:01:03.256Z,19.43
2017-09-24T09:03:31.591Z,20.30
2017-09-24T09:05:59.172Z,19.73
2017-09-24T09:08:26.770Z,17.17
2017-09-24T09:10:54.312Z,21.33
2017-09-24T09:13:23.080Z,17.70
2017-09-24T09:15:50.707Z,23.73
2017-09-24T09:23:36.793Z,17.53
2017-09-24T09:26:06.361Z,16.50
2017-09-24T09:28:33.964Z,16.90
2017-09-24T09:31:04.983Z,27.63
2017-09-24T09:33:32.945Z,18.80
2017-09-24T09:36:03.010Z,15.40
2017-09-24T09:38:30.788Z,19.63
2017-09-24T09:40:58.413Z,17.33
2017-09-24T09:43:48.588Z,19.70
2017-09-24T09:46:29.174Z,17.43
2017-09-24T09:49:00.684Z,18.23
2017-09-24T09:51:28.816Z,16.73
2017-09-24T09:53:56.866Z,19.10
2017-09-24T09:56:35.868Z,16.30
2017-09-24T09:59:03.554Z,15.00
2017-09-24T10:01:33.123Z,18.47
2017-09-24T10:04:00.953Z,16.50
2017-09-24T10:06:40.282Z,17.07
2017-09-24T10:09:20.368Z,14.80
2017-09-24T10:11:47.903Z,19.27
2017-09-24T10:14:16.595Z,14.90
2017-09-24T10:16:45.052Z,16.07
2017-09-24T10:19:12.722Z,14.33
2017-09-24T10:21:40.357Z,15.20
2017-09-24T10:24:08.033Z,16.50
2017-09-24T10:26:36.761Z,14.07
2017-09-24T10:29:17.262Z,17.53
2017-09-24T10:34:39.084Z,13.63
2017-09-24T10:37:06.792Z,13.03
2017-09-24T10:39:35.015Z,15.47
2017-09-24T10:42:02.610Z,13.13
2017-09-24T10:44:33.281Z,15.60
2017-09-24T10:47:02.368Z,12.47
2017-09-24T10:49:30.679Z,11.23
2017-09-24T10:51:58.489Z,10.57
2017-09-24T10:54:26.053Z,11.30
2017-09-24T10:56:53.591Z,12.73
2017-09-24T10:59:21.156Z,9.80
2017-09-24T11:01:48.759Z,11.53
2017-09-24T11:04:16.792Z,12.00
2017-09-24T11:06:44.354Z,11.20
2017-09-24T11:09:12.084Z,10.67
2017-09-24T11:11:39.755Z,10.67
2017-09-24T11:14:07.439Z,11.17
2017-09-24T11:16:35.457Z,11.60
2017-09-24T11:19:03.056Z,9.30
2017-09-24T11:21:32.602Z,11.03
2017-09-24T11:24:00.519Z,9.47
2017-09-24T11:26:28.151Z,11.27
2017-09-24T11:28:56.260Z,9.50
2017-09-24T11:31:23.791Z,8.87
2017-09-24T11:33:52.102Z,11.27
2017-09-24T11:36:19.679Z,10.40
2017-09-24T11:38:47.206Z,11.60
2017-09-24T11:41:15.932Z,10.53
2017-09-24T11:43:43.443Z,11.27
2017-09-24T11:46:10.978Z,9.30
2017-09-24T11:48:38.568Z,12.50
2017-09-24T11:51:06.104Z,9.77
2017-09-24T11:53:33.927Z,12.67
2017-09-24T11:56:01.475Z,9.30
2017-09-24T11:58:30.174Z,9.47
2017-09-24T12:00:57.730Z,10.20
2017-09-24T12:03:25.266Z,9.10
2017-09-24T12:05:54.328Z,9.73
2017-09-24T12:08:21.865Z,10.07
2017-09-24T12:10:49.384Z,9.43
2017-09-24T12:13:17.713Z,9.30
2017-09-24T12:15:45.248Z,9.13
2017-09-24T12:18:13.860Z,9.23
2017-09-24T12:20:41.399Z,9.70
2017-09-24T12:23:08.919Z,10.77
2017-09-24T12:25:37.255Z,8.73
2017-09-24T12:28:04.807Z,9.60
2017-09-24T12:30:32.646Z,10.40
2017-09-24T12:33:00.961Z,9.33
2017-09-24T12:35:28.483Z,9.60
2017-09-24T12:37:56.831Z,10.03
2017-09-24T12:40:24.375Z,10.43
2017-09-24T12:42:52.197Z,9.20
2017-09-24T12:45:19.726Z,9.83
2017-09-24T12:47:47.312Z,10.00
2017-09-24T12:50:15.633Z,8.53
2017-09-24T12:52:43.182Z,9.73
2017-09-24T12:55:10.993Z,9.20
2017-09-24T12:57:39.308Z,9.07
2017-09-24T13:00:06.867Z,8.77
2017-09-24T13:02:34.429Z,9.10
2017-09-24T13:05:02.088Z,9.20
2017-09-24T13:07:29.941Z,9.53
2017-09-24T13:09:57.531Z,7.63
2017-09-24T13:12:25.074Z,9.40
2017-09-24T13:14:52.717Z,8.47
2017-09-24T13:17:24.036Z,9.70
2017-09-24T13:19:52.184Z,9.17
2017-09-24T13:22:19.744Z,10.27
2017-09-24T13:24:47.350Z,10.30
2017-09-24T13:27:15.712Z,11.63
2017-09-24T13:29:43.265Z,10.50
2017-09-24T13:32:11.139Z,10.30
2017-09-24T13:34:38.678Z,10.07
2017-09-24T13:37:06.262Z,10.57
2017-09-24T13:39:33.860Z,11.43
2017-09-24T13:42:02.156Z,13.30
2017-09-24T13:44:30.738Z,11.57
2017-09-24T13:46:58.283Z,11.77
2017-09-24T13:49:26.599Z,10.93
2017-09-24T13:51:54.236Z,11.40
2017-09-24T13:54:25.215Z,11.43
2017-09-24T13:56:53.040Z,11.67
2017-09-24T13:59:20.586Z,10.40
2017-09-24T14:01:48.994Z,12.17
2017-09-24T14:04:17.985Z,10.93
2017-09-24T14:06:45.578Z,10.27
2017-09-24T14:09:14.277Z,10.50
2017-09-24T14:52:31.010Z,10.03
2017-09-24T14:54:59.816Z,10.60
2017-09-24T14:57:35.928Z,11.17
2017-09-24T15:00:04.380Z,9.37
2017-09-24T15:02:32.221Z,10.23
2017-09-24T15:05:00.634Z,10.57
2017-09-24T15:07:29.548Z,10.37
2017-09-24T15:09:59.730Z,9.97
2017-09-24T15:12:28.179Z,11.10
2017-09-24T15:14:56.145Z,9.67
2017-09-24T15:17:25.209Z,11.53
2017-09-24T15:19:54.882Z,10.20
2017-09-24T15:22:22.859Z,10.47
2017-09-24T15:24:50.823Z,9.83
2017-09-24T15:27:21.299Z,9.70
2017-09-24T15:29:48.860Z,10.03
2017-09-24T15:32:16.800Z,11.93
2017-09-24T15:34:45.349Z,10.40
2017-09-24T15:37:13.405Z,12.53
2017-09-24T15:39:41.807Z,10.83
2017-09-24T15:42:11.773Z,9.00
2017-09-24T15:47:40.981Z,10.03
2017-09-24T15:50:10.138Z,10.27
2017-09-24T15:55:41.462Z,12.10
2017-09-24T16:05:15.114Z,11.00
2017-09-24T16:07:45.235Z,11.00
2017-09-24T16:34:38.456Z,14.97
2017-09-24T16:43:30.434Z,12.57
2017-09-24T16:48:58.305Z,13.43
2017-09-24T16:51:26.300Z,19.20
2017-09-24T16:53:53.841Z,15.63
2017-09-24T16:56:23.146Z,16.10
2017-09-24T16:58:50.727Z,14.20
2017-09-24T17:01:20.712Z,14.63
2017-09-24T17:03:51.179Z,16.17
2017-09-24T17:06:26.601Z,15.80
2017-09-24T17:08:58.298Z,15.50
2017-09-24T17:11:28.532Z,14.83
2017-09-24T17:13:57.428Z,15.77
2017-09-24T17:16:26.745Z,17.90
2017-09-24T17:18:55.529Z,23.17
2017-09-24T17:21:26.215Z,22.10
2017-09-24T17:23:53.827Z,21.00
2017-09-24T17:26:24.648Z,14.70
2017-09-24T17:28:53.235Z,15.80
2017-09-24T17:31:20.873Z,15.90
2017-09-24T17:36:36.510Z,16.03
2017-09-24T17:39:05.293Z,17.07
2017-09-24T17:41:33.611Z,16.90
2017-09-24T17:44:01.228Z,19.67
2017-09-24T17:46:29.871Z,17.67
2017-09-24T17:48:58.321Z,25.40
2017-09-24T17:51:27.827Z,21.93
2017-09-24T17:53:55.643Z,22.93
2017-09-24T17:56:23.295Z,19.03
2017-09-24T17:58:50.879Z,23.10
2017-09-24T18:01:19.666Z,22.23
2017-09-24T18:03:49.006Z,19.80
2017-09-24T18:06:17.535Z,28.07
2017-09-24T18:08:45.801Z,21.80
2017-09-24T18:11:14.188Z,19.57
2017-09-24T18:13:42.870Z,23.70
2017-09-24T18:18:45.594Z,19.00
2017-09-24T18:21:14.453Z,16.30
2017-09-24T18:23:42.128Z,19.37
2017-09-24T18:26:09.848Z,20.67
2017-09-24T18:28:37.922Z,17.27
2017-09-24T18:31:06.296Z,28.37
2017-09-24T18:33:35.147Z,23.63
2017-09-24T18:36:02.871Z,28.47
2017-09-24T18:38:30.550Z,23.27
2017-09-24T18:40:58.309Z,23.73
2017-09-24T18:43:26.254Z,18.90
2017-09-24T18:45:55.258Z,23.50
2017-09-24T18:48:22.851Z,18.17
2017-09-24T18:50:51.572Z,23.07
2017-09-24T18:53:20.337Z,20.33
2017-09-24T18:55:48.352Z,20.23
2017-09-24T18:58:16.945Z,22.90
2017-09-24T19:00:44.862Z,19.00
2017-09-24T19:03:13.672Z,19.07
2017-09-24T19:05:41.616Z,19.23
2017-09-24T19:08:09.301Z,16.97
2017-09-24T19:10:37.568Z,20.10
2017-09-24T19:13:05.365Z,19.07
2017-09-24T19:15:33.286Z,22.97
2017-09-24T19:18:01.157Z,19.20
2017-09-24T19:20:29.373Z,21.97
2017-09-24T19:22:57.979Z,18.63
2017-09-24T19:25:25.804Z,18.67
2017-09-24T19:27:53.344Z,16.80
2017-09-24T19:30:20.915Z,21.20
2017-09-24T19:32:48.521Z,19.63
2017-09-24T19:35:16.534Z,19.60
2017-09-24T19:37:44.119Z,20.27
2017-09-24T19:40:11.805Z,17.90
2017-09-24T19:42:39.507Z,24.00
2017-09-24T19:45:07.904Z,21.73
2017-09-24T19:47:36.142Z,22.67
2017-09-24T19:50:03.955Z,25.37
2017-09-24T19:52:31.792Z,23.93
2017-09-24T19:54:59.511Z,26.30
2017-09-24T19:57:28.193Z,29.63
2017-09-24T19:59:56.092Z,29.73
2017-09-24T20:02:24.527Z,29.57
2017-09-24T20:04:52.162Z,30.40
2017-09-24T20:07:19.931Z,29.73
2017-09-24T20:09:48.452Z,28.00
2017-09-24T20:12:17.188Z,28.00
2017-09-24T20:14:44.933Z,27.83
2017-09-24T20:17:13.385Z,27.13
2017-09-24T20:19:41.075Z,23.40
2017-09-24T20:22:08.728Z,26.10
2017-09-24T20:24:37.406Z,23.63
2017-09-24T20:27:04.991Z,26.50
2017-09-24T20:29:32.917Z,21.90
2017-09-24T20:32:00.622Z,24.83
2017-09-24T20:34:28.248Z,32.33
2017-09-24T20:36:56.148Z,28.83
2017-09-24T20:39:23.750Z,26.30
2017-09-24T20:41:51.366Z,27.03
2017-09-24T20:44:19.429Z,22.43
2017-09-24T20:46:47.840Z,23.57
2017-09-24T20:49:15.757Z,18.87
2017-09-24T20:51:43.410Z,23.47
2017-09-24T20:54:11.055Z,20.43
2017-09-24T20:56:38.796Z,21.13
2017-09-24T20:59:07.910Z,18.50
2017-09-24T21:01:36.606Z,22.20
2017-09-24T21:04:04.506Z,23.43
2017-09-24T21:06:32.042Z,21.07
2017-09-24T21:08:59.589Z,24.87
2017-09-24T21:11:27.148Z,27.47
2017-09-24T21:13:55.018Z,23.30
2017-09-24T21:16:22.675Z,24.10
2017-09-24T21:18:50.536Z,30.57
2017-09-24T21:21:18.111Z,25.03
2017-09-24T21:23:45.927Z,25.60
2017-09-24T21:26:14.729Z,25.30
2017-09-24T21:28:42.247Z,24.50
2017-09-24T21:31:10.539Z,27.87
2017-09-24T21:33:38.148Z,25.70
2017-09-24T21:36:06.445Z,25.43
2017-09-24T21:38:34.345Z,24.90
2017-09-24T21:41:01.899Z,23.67
2017-09-24T21:43:29.436Z,24.47
2017-09-24T21:45:57.335Z,24.97
2017-09-24T21:48:24.855Z,25.30
2017-09-24T21:50:53.150Z,24.60
2017-09-24T21:53:21.867Z,24.60
2017-09-24T21:55:49.411Z,22.53
2017-09-24T21:58:16.945Z,23.53
2017-09-24T22:00:46.672Z,29.13
2017-09-24T22:03:14.220Z,30.20
2017-09-24T22:05:41.738Z,24.70
2017-09-24T22:08:09.558Z,30.20
2017-09-24T22:10:37.072Z,26.73
2017-09-24T22:13:04.599Z,24.60
2017-09-24T22:15:32.419Z,30.93
2017-09-24T22:18:00.731Z,23.30
2017-09-24T22:20:28.267Z,24.93
2017-09-24T22:22:56.212Z,25.60
2017-09-24T22:25:24.562Z,24.23
2017-09-24T22:27:52.119Z,32.00
2017-09-24T22:30:19.706Z,25.47
2017-09-24T22:32:47.257Z,28.20
2017-09-24T22:35:14.860Z,29.43
2017-09-24T22:37:42.499Z,24.57
2017-09-24T22:40:10.796Z,24.97
2017-09-24T22:42:38.326Z,26.53
2017-09-24T22:45:05.882Z,26.40
2017-09-24T22:47:33.402Z,27.83
2017-09-24T22:50:00.932Z,26.17
2017-09-24T22:52:29.444Z,26.07
2017-09-24T22:54:56.973Z,29.37
2017-09-24T22:57:25.260Z,26.50
2017-09-24T22:59:52.813Z,26.70
2017-09-24T23:02:21.091Z,25.83
2017-09-24T23:04:49.381Z,28.30
2017-09-24T23:07:16.931Z,27.80
2017-09-24T23:09:44.458Z,22.70
2017-09-24T23:12:11.981Z,24.60
2017-09-24T23:14:39.530Z,26.23
2017-09-24T23:17:07.069Z,24.07
2017-09-24T23:19:35.355Z,28.50
2017-09-24T23:22:02.903Z,26.40
2017-09-24T23:24:31.210Z,27.67
2017-09-24T23:26:58.753Z,25.93
2017-09-24T23:29:26.298Z,25.37
2017-09-24T23:31:54.579Z,25.27
2017-09-24T23:34:22.867Z,27.93
2017-09-24T23:36:50.417Z,29.03
2017-09-24T23:39:18.694Z,28.90
2017-09-24T23:41:46.975Z,28.43
2017-09-24T23:44:15.378Z,28.13
2017-09-24T23:46:42.913Z,28.17
2017-09-24T23:49:11.194Z,24.70
2017-09-24T23:51:39.497Z,30.43
2017-09-24T23:54:07.091Z,26.03
2017-09-24T23:56:34.640Z,27.47
2017-09-24T23:59:02.211Z,30.00
